createdAt,value
2023-03-12T00:05:32.952Z,12
2023-03-12T00:15:38.508Z,12
2023-03-12T00:25:45.531Z,14
2023-03-12T00:35:49.319Z,13
2023-03-12T00:45:56.064Z,13
2023-03-12T00:56:04.310Z,13
2023-03-12T01:06:11.290Z,14
2023-03-12T01:16:16.975Z,12
2023-03-12T01:26:21.966Z,14
2023-03-12T01:36:27.698Z,11
2023-03-12T01:46:31.565Z,12
2023-03-12T01:56:37.143Z,15
2023-03-12T02:06:44.044Z,14
2023-03-12T02:16:47.242Z,14
2023-03-12T02:26:53.233Z,13
2023-03-12T02:37:00.651Z,12
2023-03-12T02:47:06.368Z,15
2023-03-12T02:57:12.427Z,11
2023-03-12T03:07:18.473Z,14
2023-03-12T03:17:22.583Z,11
2023-03-12T03:27:26.973Z,11
2023-03-12T03:37:32.582Z,11
2023-03-12T03:47:39.302Z,12
2023-03-12T03:57:43.738Z,12
2023-03-12T04:07:49.947Z,11
2023-03-12T04:17:54.930Z,10
2023-03-12T04:27:59.665Z,11
2023-03-12T04:38:04.848Z,11
2023-03-12T04:48:08.718Z,14
2023-03-12T04:58:15.589Z,12
2023-03-12T05:08:21.279Z,12
2023-03-12T05:18:25.583Z,12
2023-03-12T05:28:29.713Z,11
2023-03-12T05:38:34.876Z,11
2023-03-12T05:48:40.568Z,11
2023-03-12T05:58:46.530Z,10
2023-03-12T06:08:51.855Z,10
2023-03-12T06:18:56.499Z,8
2023-03-12T06:29:02.322Z,9
2023-03-12T06:39:08.051Z,8
2023-03-12T06:49:13.017Z,7
2023-03-12T06:59:17.394Z,7
2023-03-12T07:09:24.126Z,9
2023-03-12T07:19:29.132Z,10
2023-03-12T07:29:34.397Z,10
2023-03-12T07:39:38.961Z,10
2023-03-12T07:49:44.438Z,18
2023-03-12T07:59:51.549Z,11
2023-03-12T08:09:57.576Z,11
2023-03-12T08:20:03.322Z,12
2023-03-12T08:30:07.950Z,12
2023-03-12T08:40:14.606Z,12
2023-03-12T08:50:19.833Z,12
2023-03-12T09:00:24.770Z,12
2023-03-12T09:10:31.142Z,12
2023-03-12T09:21:06.313Z,10
2023-03-12T09:31:11.137Z,10
2023-03-12T09:41:18.920Z,10
2023-03-12T09:51:26.728Z,9
2023-03-12T10:01:33.433Z,8
2023-03-12T10:11:38.118Z,8
2023-03-12T10:21:42.508Z,8
2023-03-12T10:31:49.348Z,8
2023-03-12T10:41:55.803Z,16
2023-03-12T10:52:00.939Z,8
2023-03-12T11:02:07.787Z,7
2023-03-12T11:12:15.038Z,10
2023-03-12T11:22:19.401Z,6
2023-03-12T11:32:29.443Z,5
2023-03-12T11:42:33.908Z,3
2023-03-12T11:52:40.838Z,19
2023-03-12T12:02:47.053Z,21
2023-03-12T12:12:53.366Z,19
2023-03-12T12:22:58.293Z,10
2023-03-12T12:33:02.975Z,6
2023-03-12T12:43:09.424Z,5
2023-03-12T12:53:14.092Z,6
2023-03-12T13:03:20.760Z,5
2023-03-12T13:13:27.446Z,4
2023-03-12T13:23:32.270Z,4
2023-03-12T13:33:39.729Z,4
2023-03-12T13:43:46.210Z,4
2023-03-12T13:53:51.700Z,6
2023-03-12T14:03:59.275Z,2
2023-03-12T14:14:07.864Z,3
2023-03-12T14:24:13.821Z,6
2023-03-12T14:34:18.817Z,7
2023-03-12T14:44:25.555Z,6
2023-03-12T14:54:31.542Z,4
2023-03-12T15:04:38.162Z,3
2023-03-12T15:14:43.867Z,4
2023-03-12T15:24:49.945Z,1
2023-03-12T15:34:58.137Z,2
2023-03-12T15:45:01.175Z,8
2023-03-12T15:55:05.877Z,5
2023-03-12T16:05:12.190Z,6
2023-03-12T16:15:19.027Z,2
2023-03-12T16:25:25.264Z,4
2023-03-12T16:35:31.505Z,3
2023-03-12T16:45:38.428Z,7
2023-03-12T16:55:43.971Z,4
2023-03-12T17:05:50.049Z,5
2023-03-12T17:15:55.639Z,5
2023-03-12T17:26:01.440Z,5
2023-03-12T17:36:07.020Z,8
2023-03-12T17:46:13.409Z,10
2023-03-12T17:56:18.383Z,7
2023-03-12T18:16:34.824Z,5
2023-03-12T18:26:41.701Z,6
2023-03-12T18:36:48.175Z,5
2023-03-12T18:46:52.538Z,4
2023-03-12T18:56:57.836Z,8
2023-03-12T19:07:22.585Z,5
2023-03-12T19:17:16.507Z,6
2023-03-12T19:27:22.983Z,29
2023-03-12T19:37:29.772Z,5
2023-03-12T19:47:33.845Z,5
2023-03-12T19:57:39.108Z,7
2023-03-12T20:07:44.024Z,9
2023-03-12T20:17:50.426Z,5
2023-03-12T20:27:56.281Z,7
2023-03-12T20:38:01.360Z,7
2023-03-12T20:48:08.176Z,7
2023-03-12T20:58:13.408Z,8
2023-03-12T21:08:19.952Z,4
2023-03-12T21:18:25.770Z,4
2023-03-12T21:28:38.938Z,6
2023-03-12T21:38:37.639Z,4
2023-03-12T21:48:43.057Z,6
2023-03-12T21:58:49.746Z,4
2023-03-12T22:08:55.839Z,6
2023-03-12T22:19:00.433Z,5
2023-03-12T22:29:06.700Z,6
2023-03-12T22:39:10.832Z,2
2023-03-12T22:49:15.605Z,4
2023-03-12T22:59:21.007Z,2
2023-03-12T23:09:29.563Z,3
2023-03-12T23:19:32.477Z,3
2023-03-12T23:29:37.766Z,5
2023-03-12T23:39:54.311Z,4
2023-03-12T23:49:52.137Z,3
2023-03-12T23:59:59.410Z,3
